»·PEaware :: SWA102 KSFO-KPSP

SWA102 :: KSFO-KPSP

FLIGHT INFORMATION

Flight Status: Arrived
Operator:
Southwest Airlines
More flights by this operator :: More flights under this callsign
Pilot: Cole F. (14495)
Aircraft: BOEING 737-700
(B737)
More flights by this aircraft type
Origin: KSFO San Francisco Intl
United States
Destination: KPSP Palm Springs Intl
United States
More flights between these airports :: More routes between these airports
Route: +WESLA4 LOSHN CLASN SIZLR3
File this flight plan on PilotEdge
Remarks:
Altitude:
(Current/Filed)
39,000ft
Speed:
(Current/Filed)
446kts
Departed: 30-Apr-19 01:39 PM
Arrived: 30-Apr-19 02:44 PM
Distance/Time
Traveled:
365nm/1:05
Distance/Time
To Go:
Arrived

Flight Plot

Page will automatically refresh every two minutes.


Map Options




Map Legend


Flown Route
Filed Route
Departure Airport
Arrival Airport
Navaid (VOR, NDB)
Fix

Horizontal Profiles

Position Reports

Time Latitude Longitude Heading Altitude Ground
Speed
30-Apr-19 13:14 37.612832 -122.383170 296 19ft 0kts
30-Apr-19 13:15 37.612832 -122.383170 296 19ft 0kts
30-Apr-19 13:16 37.612832 -122.383170 296 19ft 0kts
30-Apr-19 13:17 37.612832 -122.383170 296 19ft 0kts
30-Apr-19 13:18 37.612832 -122.383170 296 19ft 0kts
30-Apr-19 13:19 37.612832 -122.383170 296 19ft 0kts
30-Apr-19 13:20 37.612832 -122.383170 296 19ft 0kts
30-Apr-19 13:21 37.612832 -122.383169 296 19ft 0kts
30-Apr-19 13:22 37.612832 -122.383170 296 19ft 0kts
30-Apr-19 13:23 37.612832 -122.383170 296 19ft 0kts
30-Apr-19 13:24 37.612832 -122.383170 296 19ft 0kts
30-Apr-19 13:25 37.612832 -122.383170 296 19ft 0kts
30-Apr-19 13:26 37.612830 -122.383164 297 19ft 1kts
30-Apr-19 13:27 37.612542 -122.382511 331 19ft 2kts
30-Apr-19 13:28 37.612461 -122.382388 28 19ft 1kts
30-Apr-19 13:29 37.612492 -122.382369 27 19ft 0kts
30-Apr-19 13:30 37.612491 -122.382369 27 19ft 0kts
30-Apr-19 13:31 37.612797 -122.382170 27 19ft 8kts
30-Apr-19 13:32 37.616063 -122.380006 27 19ft 14kts
30-Apr-19 13:33 37.616416 -122.375451 97 19ft 15kts
30-Apr-19 13:34 37.615155 -122.370291 119 19ft 15kts
30-Apr-19 13:35 37.612827 -122.365856 117 19ft 15kts
30-Apr-19 13:36 37.610574 -122.360458 113 19ft 13kts
30-Apr-19 13:37 37.611065 -122.358982 29 19ft 8kts
30-Apr-19 13:38 37.621388 -122.380477 293 498ft 159kts
30-Apr-19 13:39 37.647830 -122.440269 297 2350ft 250kts
30-Apr-19 13:40 37.680800 -122.523460 281 4038ft 260kts
30-Apr-19 13:41 37.639178 -122.571992 166 7377ft 290kts
30-Apr-19 13:42 37.564308 -122.524813 154 10353ft 322kts
30-Apr-19 13:43 37.481478 -122.461055 137 12877ft 366kts
30-Apr-19 13:44 37.414325 -122.359625 131 15916ft 388kts
30-Apr-19 13:45 37.343335 -122.252385 131 18736ft 409kts
30-Apr-19 13:46 37.268932 -122.139817 131 21363ft 427kts
30-Apr-19 13:48 37.191726 -122.022849 131 23800ft 442kts
30-Apr-19 13:49 37.111765 -121.901537 131 26007ft 457kts
30-Apr-19 13:50 37.029567 -121.776646 132 28005ft 472kts
30-Apr-19 13:51 36.945065 -121.648053 132 29858ft 485kts
30-Apr-19 13:52 36.858456 -121.516014 131 31761ft 492kts
30-Apr-19 13:53 36.771633 -121.383434 131 33797ft 490kts
30-Apr-19 13:54 36.685743 -121.251957 132 35628ft 487kts
30-Apr-19 13:55 36.600418 -121.121231 132 37127ft 487kts
30-Apr-19 13:56 36.515215 -120.990466 131 38415ft 487kts
30-Apr-19 13:57 36.428280 -120.859884 133 39046ft 500kts
30-Apr-19 13:58 36.338182 -120.727218 132 39048ft 499kts
30-Apr-19 13:59 36.248756 -120.595253 132 39045ft 499kts
30-Apr-19 14:00 36.159419 -120.463194 132 39058ft 499kts
30-Apr-19 14:01 36.070380 -120.331344 132 39025ft 498kts
30-Apr-19 14:02 35.981674 -120.199717 132 39002ft 498kts
30-Apr-19 14:03 35.893092 -120.067649 129 39010ft 499kts
30-Apr-19 14:04 35.819868 -119.923131 118 39004ft 502kts
30-Apr-19 14:05 35.761409 -119.772295 115 39010ft 518kts
30-Apr-19 14:06 35.700644 -119.611388 117 39010ft 516kts
30-Apr-19 14:07 35.624412 -119.461697 129 39016ft 513kts
30-Apr-19 14:08 35.531871 -119.330198 135 38986ft 510kts
30-Apr-19 14:09 35.436850 -119.202529 135 38988ft 510kts
30-Apr-19 14:10 35.341381 -119.073991 135 38990ft 509kts
30-Apr-19 14:11 35.245252 -118.946624 135 38992ft 508kts
30-Apr-19 14:12 35.149528 -118.821202 135 38997ft 495kts
30-Apr-19 14:12 35.071331 -118.718633 135 39018ft 496kts
30-Apr-19 14:14 34.960875 -118.573515 135 37429ft 505kts
30-Apr-19 14:14 34.887349 -118.476756 134 35593ft 497kts
30-Apr-19 14:16 34.782336 -118.337895 132 32144ft 469kts
30-Apr-19 14:16 34.716593 -118.237124 130 29623ft 446kts
30-Apr-19 14:17 34.641489 -118.121028 130 26309ft 437kts
30-Apr-19 14:19 34.559327 -117.973132 120 23027ft 448kts
30-Apr-19 14:19 34.511987 -117.860869 117 23005ft 447kts
30-Apr-19 14:21 34.447653 -117.703733 117 23003ft 445kts
30-Apr-19 14:21 34.401526 -117.591170 117 22970ft 445kts
30-Apr-19 14:22 34.347118 -117.458570 117 20437ft 434kts
30-Apr-19 14:23 34.294417 -117.330295 119 17859ft 416kts
30-Apr-19 14:24 34.238803 -117.211800 121 16112ft 397kts
30-Apr-19 14:25 34.183636 -117.094637 121 16109ft 399kts
30-Apr-19 14:26 34.130304 -116.981137 121 16143ft 398kts
30-Apr-19 14:27 34.075583 -116.864254 121 16135ft 395kts
30-Apr-19 14:28 34.022848 -116.752218 121 15112ft 373kts
30-Apr-19 14:29 33.973658 -116.648058 121 13270ft 339kts
30-Apr-19 14:30 33.928761 -116.553308 121 11483ft 321kts
30-Apr-19 14:31 33.884694 -116.460599 121 9870ft 308kts
30-Apr-19 14:32 33.845200 -116.371668 118 8378ft 291kts
30-Apr-19 14:33 33.810089 -116.288387 120 7058ft 265kts
30-Apr-19 14:34 33.763612 -116.229631 161 5984ft 231kts
30-Apr-19 14:35 33.704229 -116.203440 178 5192ft 218kts
30-Apr-19 14:36 33.666470 -116.239782 260 4432ft 186kts
30-Apr-19 14:37 33.661118 -116.301443 262 3985ft 184kts
30-Apr-19 14:38 33.673120 -116.360890 300 3989ft 192kts
30-Apr-19 14:39 33.713073 -116.400144 319 3357ft 173kts
30-Apr-19 14:40 33.748310 -116.433068 318 2117ft 149kts
30-Apr-19 14:41 33.779729 -116.463336 323 1478ft 143kts
30-Apr-19 14:42 33.811471 -116.491514 325 677ft 138kts
30-Apr-19 14:43 33.832731 -116.510352 323 430ft 29kts

Navigation Log

Ident Type
Flight plan parsing failed, navigation log unavailable